createdAt,value
2022-09-06T09:16:08.566Z,2.47
2022-09-06T09:18:40.645Z,3.22
2022-09-06T09:21:08.341Z,2.85
2022-09-06T09:23:36.331Z,2.70
2022-09-06T09:26:08.189Z,3.00
2022-09-06T09:28:37.525Z,2.60
2022-09-06T09:31:07.322Z,2.65
2022-09-06T09:33:38.811Z,2.70
2022-09-06T09:36:10.381Z,2.80
2022-09-06T09:38:43.768Z,2.90
2022-09-06T09:41:24.849Z,2.85
2022-09-06T09:44:03.658Z,3.10
2022-09-06T09:46:33.998Z,2.90
2022-09-06T09:49:06.181Z,3.40
2022-09-06T09:51:35.728Z,3.40
2022-09-06T09:54:05.661Z,2.93
2022-09-06T09:56:47.222Z,2.85
2022-09-06T09:59:26.678Z,3.08
2022-09-06T10:01:56.963Z,3.10
2022-09-06T10:04:46.098Z,3.10
2022-09-06T10:07:16.869Z,2.97
2022-09-06T10:09:47.781Z,3.23
2022-09-06T10:12:19.876Z,3.17
2022-09-06T10:14:50.301Z,3.30
2022-09-06T10:17:28.944Z,3.47
2022-09-06T10:19:56.713Z,3.50
2022-09-06T10:22:28.905Z,3.58
2022-09-06T10:25:39.974Z,3.35
2022-09-06T10:28:38.965Z,3.67
2022-09-06T10:31:37.793Z,3.00
2022-09-06T10:34:19.860Z,3.08
2022-09-06T10:36:53.568Z,3.17
2022-09-06T10:39:35.036Z,2.97
2022-09-06T10:42:13.894Z,3.20
2022-09-06T10:44:59.288Z,3.47
2022-09-06T10:47:36.226Z,3.30
2022-09-06T10:50:06.093Z,2.90
2022-09-06T10:52:39.493Z,2.85
2022-09-06T10:55:10.645Z,3.20
2022-09-06T11:00:37.123Z,3.00
2022-09-06T11:06:08.692Z,3.00
2022-09-06T11:11:23.189Z,3.03
2022-09-06T11:13:51.066Z,3.13
2022-09-06T11:16:24.936Z,3.27
2022-09-06T11:19:00.418Z,3.00
2022-09-06T11:22:08.157Z,2.88
2022-09-06T11:24:51.514Z,3.30
2022-09-06T11:27:29.069Z,2.90
2022-09-06T11:29:57.662Z,2.92
2022-09-06T11:32:32.855Z,3.00
2022-09-06T11:35:05.706Z,3.05
2022-09-06T11:37:35.642Z,2.78
2022-09-06T11:40:29.410Z,3.10
2022-09-06T11:43:13.415Z,2.83
2022-09-06T11:45:45.634Z,2.95
2022-09-06T11:48:35.213Z,2.95
2022-09-06T11:51:07.592Z,2.90
2022-09-06T11:53:56.250Z,2.97
2022-09-06T11:56:30.506Z,3.08
2022-09-06T11:59:02.708Z,2.70
2022-09-06T12:01:36.574Z,2.55
2022-09-06T12:04:09.726Z,2.50
2022-09-06T12:06:43.654Z,2.55
2022-09-06T12:09:32.032Z,2.40
2022-09-06T12:12:01.327Z,2.42
2022-09-06T12:14:34.497Z,2.53
2022-09-06T12:17:21.471Z,3.00
2022-09-06T12:19:51.737Z,2.70
2022-09-06T12:23:02.133Z,2.90
2022-09-06T12:25:58.908Z,2.63
2022-09-06T12:28:43.275Z,2.42
2022-09-06T12:31:35.700Z,2.85
2022-09-06T12:34:08.985Z,2.67
2022-09-06T12:36:36.724Z,3.40
2022-09-06T12:39:09.256Z,2.53
2022-09-06T12:41:43.633Z,2.80
2022-09-06T12:44:13.634Z,2.72
2022-09-06T12:46:48.083Z,2.60
2022-09-06T12:49:18.703Z,2.35
2022-09-06T12:51:46.611Z,2.17
2022-09-06T12:54:21.748Z,2.22
2022-09-06T12:56:51.797Z,2.40
2022-09-06T12:59:21.977Z,2.15
2022-09-06T13:02:01.312Z,2.30
2022-09-06T13:04:34.881Z,2.40
2022-09-06T13:07:05.262Z,2.15
2022-09-06T13:09:34.376Z,2.53
2022-09-06T13:12:09.157Z,2.47
2022-09-06T13:14:37.090Z,2.50
2022-09-06T13:17:04.791Z,2.40
2022-09-06T13:19:35.699Z,2.58
2022-09-06T13:22:05.466Z,2.20
2022-09-06T13:24:46.852Z,2.35
2022-09-06T13:27:27.387Z,2.30
2022-09-06T13:29:57.000Z,1.90
2022-09-06T13:32:25.017Z,2.20
2022-09-06T13:34:57.092Z,2.20
2022-09-06T13:37:26.379Z,2.42
2022-09-06T13:39:54.456Z,2.40
2022-09-06T13:42:28.986Z,1.80
2022-09-06T13:45:01.269Z,2.20
2022-09-06T13:47:29.969Z,2.13
2022-09-06T13:49:57.550Z,1.85
2022-09-06T13:52:25.158Z,2.08
2022-09-06T13:54:53.993Z,1.65
2022-09-06T13:57:24.491Z,1.70
2022-09-06T13:59:53.746Z,1.55
2022-09-06T14:02:21.429Z,2.00
2022-09-06T14:04:49.064Z,1.73
2022-09-06T14:07:16.752Z,1.98
2022-09-06T14:09:44.370Z,1.77
2022-09-06T14:12:12.381Z,3.00
2022-09-06T14:14:40.226Z,2.22
2022-09-06T14:17:09.436Z,2.25
2022-09-06T14:19:37.131Z,2.13
2022-09-06T14:22:06.826Z,2.60
2022-09-06T14:24:34.502Z,2.20
2022-09-06T14:27:02.189Z,2.22
2022-09-06T14:29:29.801Z,1.80
2022-09-06T14:31:57.427Z,2.17
2022-09-06T14:34:26.668Z,2.17
2022-09-06T14:36:54.623Z,1.85
2022-09-06T14:39:22.320Z,2.70
2022-09-06T14:41:50.486Z,1.80
2022-09-06T14:44:18.203Z,1.40
2022-09-06T14:46:47.642Z,1.52
2022-09-06T14:49:15.777Z,1.20
2022-09-06T14:51:45.877Z,1.50
2022-09-06T14:54:15.681Z,1.45
2022-09-06T14:56:44.135Z,1.30
2022-09-06T14:59:12.433Z,1.30
2022-09-06T15:01:41.335Z,1.55
2022-09-06T15:04:10.528Z,1.88
2022-09-06T15:06:40.560Z,2.40
2022-09-06T15:09:11.295Z,2.50
2022-09-06T15:11:41.093Z,3.20
2022-09-06T15:14:13.404Z,2.83
2022-09-06T15:16:41.187Z,3.55
2022-09-06T15:19:10.235Z,6.43
2022-09-06T15:21:37.984Z,5.57
2022-09-06T15:24:11.552Z,3.75
2022-09-06T15:26:42.075Z,3.15
2022-09-06T15:29:13.841Z,4.10
2022-09-06T15:31:42.510Z,3.80
2022-09-06T15:34:12.119Z,3.55
2022-09-06T15:36:39.838Z,3.22
2022-09-06T15:39:07.745Z,2.63
2022-09-06T15:41:40.410Z,2.80
2022-09-06T15:44:11.926Z,2.70
2022-09-06T15:46:44.679Z,2.63
2022-09-06T15:49:14.917Z,2.60
2022-09-06T15:51:43.230Z,3.10
2022-09-06T15:54:12.705Z,2.80
2022-09-06T15:56:40.400Z,3.08
2022-09-06T15:59:09.787Z,3.03
2022-09-06T16:01:38.083Z,3.25
2022-09-06T16:04:06.982Z,3.45
2022-09-06T16:06:37.823Z,3.40
2022-09-06T16:09:08.087Z,3.45
2022-09-06T16:11:36.768Z,3.60
2022-09-06T16:14:05.354Z,4.18
2022-09-06T16:16:35.163Z,4.00
2022-09-06T16:19:03.387Z,3.85
2022-09-06T16:21:33.217Z,3.80
2022-09-06T16:24:02.613Z,4.80
2022-09-06T16:26:32.673Z,4.15
2022-09-06T16:29:01.747Z,3.72
2022-09-06T16:31:30.158Z,3.70
2022-09-06T16:33:59.289Z,3.90
2022-09-06T16:36:28.217Z,3.45
2022-09-06T16:38:57.595Z,3.60
2022-09-06T16:41:27.592Z,3.27
2022-09-06T16:43:55.380Z,3.22
2022-09-06T16:46:25.830Z,3.00
2022-09-06T16:48:54.426Z,3.00
2022-09-06T16:51:25.277Z,2.80
2022-09-06T16:53:53.766Z,2.90
2022-09-06T16:56:23.530Z,3.00
2022-09-06T16:58:54.746Z,3.45
2022-09-06T17:01:22.873Z,3.67
2022-09-06T17:03:51.280Z,3.30
2022-09-06T17:06:20.422Z,3.50
2022-09-06T17:08:49.750Z,4.00
2022-09-06T17:11:20.521Z,4.00
2022-09-06T17:13:50.549Z,4.25
2022-09-06T17:16:36.716Z,4.30
2022-09-06T17:19:06.345Z,4.70
2022-09-06T17:21:34.352Z,5.07
2022-09-06T17:24:05.333Z,4.88
2022-09-06T17:26:35.332Z,5.30
2022-09-06T17:29:03.690Z,5.15
2022-09-06T17:31:31.867Z,4.82
2022-09-06T17:34:00.081Z,4.95
2022-09-06T17:36:30.677Z,5.00
2022-09-06T17:39:04.166Z,5.10
2022-09-06T17:41:36.565Z,5.35
2022-09-06T17:44:05.590Z,5.55
2022-09-06T17:46:33.742Z,5.40
2022-09-06T17:49:01.497Z,5.40
2022-09-06T17:51:29.506Z,5.30
2022-09-06T17:53:57.422Z,5.23
2022-09-06T17:56:27.226Z,5.40
2022-09-06T17:58:57.375Z,5.05
2022-09-06T18:01:27.670Z,5.30
2022-09-06T18:03:55.392Z,5.30
2022-09-06T18:06:24.874Z,5.28
2022-09-06T18:08:54.878Z,5.60
2022-09-06T18:11:24.812Z,5.70
2022-09-06T18:13:59.265Z,5.57
2022-09-06T18:16:27.372Z,5.80
2022-09-06T18:18:57.033Z,5.97
2022-09-06T18:21:26.199Z,5.78
2022-09-06T18:23:54.066Z,5.40
2022-09-06T18:26:22.152Z,5.40
2022-09-06T18:28:50.488Z,5.75
2022-09-06T18:31:21.974Z,5.60
2022-09-06T18:33:49.829Z,5.25
2022-09-06T18:36:19.492Z,4.60
2022-09-06T18:38:47.716Z,4.63
2022-09-06T18:41:30.782Z,4.32
2022-09-06T18:44:02.713Z,3.70
2022-09-06T18:46:32.728Z,3.53
2022-09-06T18:49:00.843Z,3.60
2022-09-06T18:51:29.221Z,3.65
2022-09-06T18:53:58.298Z,3.60
2022-09-06T18:56:27.528Z,4.40
2022-09-06T18:58:58.296Z,4.05
2022-09-06T19:01:29.106Z,4.15
2022-09-06T19:03:59.035Z,6.53
2022-09-06T19:06:28.638Z,4.50
2022-09-06T19:08:59.941Z,4.90
2022-09-06T19:11:28.463Z,5.40
2022-09-06T19:13:57.808Z,5.40
2022-09-06T19:16:27.805Z,5.40
2022-09-06T19:18:56.754Z,5.53
2022-09-06T19:21:27.424Z,5.33
2022-09-06T19:23:57.780Z,5.10
2022-09-06T19:26:27.645Z,5.15
2022-09-06T19:28:57.195Z,4.90
2022-09-06T19:31:26.913Z,5.50
2022-09-06T19:33:56.323Z,5.50
2022-09-06T19:36:26.578Z,5.03
2022-09-06T19:39:05.512Z,5.22
2022-09-06T19:41:36.677Z,4.65
2022-09-06T19:44:05.650Z,5.13
2022-09-06T19:46:34.863Z,5.10
2022-09-06T20:01:29.158Z,4.38
2022-09-06T20:03:57.770Z,4.72
2022-09-06T20:08:57.174Z,6.05
2022-09-06T20:11:26.654Z,6.05
2022-09-06T20:13:54.493Z,5.38
2022-09-06T20:16:24.615Z,5.57
2022-09-06T20:18:53.481Z,5.00
2022-09-06T20:58:41.745Z,6.05
2022-09-06T21:01:15.116Z,6.60
2022-09-06T21:03:43.903Z,6.05
2022-09-06T21:06:13.343Z,5.88
2022-09-06T21:08:43.084Z,5.53
2022-09-06T21:11:11.907Z,5.80
2022-09-06T21:13:42.835Z,5.60
2022-09-06T21:16:12.027Z,6.07
2022-09-06T21:18:39.837Z,6.28
2022-09-06T21:21:09.341Z,6.47
2022-09-06T21:23:39.222Z,6.00
2022-09-06T21:26:09.301Z,5.95
2022-09-06T21:28:38.712Z,6.25
2022-09-06T21:31:09.005Z,6.45
2022-09-06T21:33:40.453Z,5.85
2022-09-06T21:36:33.942Z,6.07
2022-09-06T21:39:04.289Z,5.97
2022-09-06T21:41:34.367Z,5.88
2022-09-06T21:44:03.390Z,6.13
2022-09-06T21:46:33.549Z,6.28
2022-09-06T21:49:04.850Z,5.70
2022-09-06T21:51:33.368Z,5.65
2022-09-06T21:54:05.387Z,5.90
2022-09-06T21:56:34.669Z,5.60
2022-09-06T21:59:02.925Z,5.88
2022-09-06T22:01:33.517Z,5.50
2022-09-06T22:04:03.567Z,5.68
2022-09-06T22:06:33.628Z,6.10
2022-09-06T22:09:03.185Z,6.20
2022-09-06T22:11:32.846Z,5.80
2022-09-06T22:14:01.461Z,5.18
2022-09-06T22:16:30.226Z,5.78
2022-09-06T22:18:58.151Z,5.28
2022-09-06T22:21:27.296Z,5.20
2022-09-06T22:23:58.627Z,5.28
2022-09-06T22:26:27.756Z,5.55
2022-09-06T22:28:56.915Z,5.60
2022-09-06T22:31:26.628Z,4.78
